sensor_id;sensor_type;location;lat;lon;timestamp;P1;durP1;ratioP1;P2;durP2;ratioP2
76053;SDS011;64752;48.870;9.082;2024-03-08T00:08:52;41.50;;;27.52;;
76053;SDS011;64752;48.870;9.082;2024-03-08T00:12:18;45.28;;;27.73;;
76053;SDS011;64752;48.870;9.082;2024-03-08T00:15:13;40.75;;;26.48;;
76053;SDS011;64752;48.870;9.082;2024-03-08T00:18:22;43.70;;;26.77;;
76053;SDS011;64752;48.870;9.082;2024-03-08T00:21:49;46.70;;;28.17;;
76053;SDS011;64752;48.870;9.082;2024-03-08T00:25:13;45.50;;;27.35;;
76053;SDS011;64752;48.870;9.082;2024-03-08T00:35:29;48.45;;;28.85;;
76053;SDS011;64752;48.870;9.082;2024-03-08T01:01:56;57.25;;;31.88;;
76053;SDS011;64752;48.870;9.082;2024-03-08T01:07:52;59.60;;;32.67;;
76053;SDS011;64752;48.870;9.082;2024-03-08T01:10:52;56.05;;;32.58;;
76053;SDS011;64752;48.870;9.082;2024-03-08T01:24:00;56.90;;;32.28;;
76053;SDS011;64752;48.870;9.082;2024-03-08T01:29:51;57.83;;;30.58;;
76053;SDS011;64752;48.870;9.082;2024-03-08T01:39:05;52.67;;;30.85;;
76053;SDS011;64752;48.870;9.082;2024-03-08T01:45:01;55.65;;;31.90;;
76053;SDS011;64752;48.870;9.082;2024-03-08T01:48:13;66.35;;;34.08;;
76053;SDS011;64752;48.870;9.082;2024-03-08T01:51:22;61.42;;;35.65;;
76053;SDS011;64752;48.870;9.082;2024-03-08T01:54:01;62.53;;;34.22;;
76053;SDS011;64752;48.870;9.082;2024-03-08T01:56:50;60.47;;;33.75;;
76053;SDS011;64752;48.870;9.082;2024-03-08T01:59:54;52.45;;;31.23;;
76053;SDS011;64752;48.870;9.082;2024-03-08T02:02:54;48.08;;;29.73;;
76053;SDS011;64752;48.870;9.082;2024-03-08T02:06:18;47.35;;;30.45;;
76053;SDS011;64752;48.870;9.082;2024-03-08T02:08:47;53.42;;;29.73;;
76053;SDS011;64752;48.870;9.082;2024-03-08T02:11:41;49.00;;;28.20;;
76053;SDS011;64752;48.870;9.082;2024-03-08T02:14:51;48.38;;;28.65;;
76053;SDS011;64752;48.870;9.082;2024-03-08T02:20:51;44.80;;;26.92;;
76053;SDS011;64752;48.870;9.082;2024-03-08T02:26:28;37.70;;;24.77;;
76053;SDS011;64752;48.870;9.082;2024-03-08T02:29:30;41.33;;;23.88;;
76053;SDS011;64752;48.870;9.082;2024-03-08T02:32:29;42.20;;;25.45;;
76053;SDS011;64752;48.870;9.082;2024-03-08T02:35:21;37.45;;;23.83;;
76053;SDS011;64752;48.870;9.082;2024-03-08T02:37:59;41.60;;;25.50;;
76053;SDS011;64752;48.870;9.082;2024-03-08T02:40:33;41.65;;;24.75;;
76053;SDS011;64752;48.870;9.082;2024-03-08T02:43:04;39.70;;;24.10;;
76053;SDS011;64752;48.870;9.082;2024-03-08T02:45:38;40.00;;;24.25;;
76053;SDS011;64752;48.870;9.082;2024-03-08T02:48:33;38.38;;;24.05;;
76053;SDS011;64752;48.870;9.082;2024-03-08T02:51:18;38.17;;;23.45;;
76053;SDS011;64752;48.870;9.082;2024-03-08T02:54:17;39.03;;;23.75;;
76053;SDS011;64752;48.870;9.082;2024-03-08T03:00:39;38.33;;;23.27;;
76053;SDS011;64752;48.870;9.082;2024-03-08T03:03:45;38.70;;;22.25;;
76053;SDS011;64752;48.870;9.082;2024-03-08T03:06:54;38.03;;;23.90;;
76053;SDS011;64752;48.870;9.082;2024-03-08T03:10:04;41.80;;;23.80;;
76053;SDS011;64752;48.870;9.082;2024-03-08T03:13:03;38.25;;;23.40;;
76053;SDS011;64752;48.870;9.082;2024-03-08T03:16:08;37.45;;;24.08;;
76053;SDS011;64752;48.870;9.082;2024-03-08T03:19:07;39.85;;;24.23;;
76053;SDS011;64752;48.870;9.082;2024-03-08T03:25:25;40.05;;;23.23;;
76053;SDS011;64752;48.870;9.082;2024-03-08T03:28:37;38.20;;;23.15;;
76053;SDS011;64752;48.870;9.082;2024-03-08T03:31:19;38.03;;;23.08;;
76053;SDS011;64752;48.870;9.082;2024-03-08T03:40:08;37.40;;;22.20;;
76053;SDS011;64752;48.870;9.082;2024-03-08T03:42:48;37.30;;;23.08;;
76053;SDS011;64752;48.870;9.082;2024-03-08T03:45:52;38.53;;;22.75;;
76053;SDS011;64752;48.870;9.082;2024-03-08T03:49:04;38.50;;;22.95;;
76053;SDS011;64752;48.870;9.082;2024-03-08T03:54:53;35.80;;;22.13;;
76053;SDS011;64752;48.870;9.082;2024-03-08T04:01:03;35.83;;;22.42;;
76053;SDS011;64752;48.870;9.082;2024-03-08T04:03:54;35.55;;;21.83;;
76053;SDS011;64752;48.870;9.082;2024-03-08T04:06:54;35.67;;;22.25;;
76053;SDS011;64752;48.870;9.082;2024-03-08T04:09:48;37.08;;;22.60;;
76053;SDS011;64752;48.870;9.082;2024-03-08T04:16:11;33.72;;;22.17;;
76053;SDS011;64752;48.870;9.082;2024-03-08T04:22:50;39.30;;;23.40;;
76053;SDS011;64752;48.870;9.082;2024-03-08T04:32:02;34.97;;;22.33;;
76053;SDS011;64752;48.870;9.082;2024-03-08T04:34:57;39.17;;;23.52;;
76053;SDS011;64752;48.870;9.082;2024-03-08T04:38:01;37.63;;;22.85;;
76053;SDS011;64752;48.870;9.082;2024-03-08T04:40:43;36.67;;;23.45;;
76053;SDS011;64752;48.870;9.082;2024-03-08T04:43:23;33.42;;;22.67;;
76053;SDS011;64752;48.870;9.082;2024-03-08T04:46:24;39.97;;;22.08;;
76053;SDS011;64752;48.870;9.082;2024-03-08T04:49:16;41.28;;;24.23;;
76053;SDS011;64752;48.870;9.082;2024-03-08T04:51:52;36.58;;;22.50;;
76053;SDS011;64752;48.870;9.082;2024-03-08T04:54:21;38.88;;;23.67;;
76053;SDS011;64752;48.870;9.082;2024-03-08T04:56:55;36.45;;;24.05;;
76053;SDS011;64752;48.870;9.082;2024-03-08T05:02:44;38.65;;;24.13;;
76053;SDS011;64752;48.870;9.082;2024-03-08T05:05:23;34.80;;;22.63;;
76053;SDS011;64752;48.870;9.082;2024-03-08T05:08:11;34.47;;;23.40;;
76053;SDS011;64752;48.870;9.082;2024-03-08T05:10:36;39.85;;;24.27;;
76053;SDS011;64752;48.870;9.082;2024-03-08T05:13:27;38.22;;;25.25;;
76053;SDS011;64752;48.870;9.082;2024-03-08T05:16:01;35.83;;;22.80;;
76053;SDS011;64752;48.870;9.082;2024-03-08T05:19:10;39.10;;;24.25;;
76053;SDS011;64752;48.870;9.082;2024-03-08T05:36:24;43.20;;;25.45;;
76053;SDS011;64752;48.870;9.082;2024-03-08T05:39:02;43.10;;;28.23;;
76053;SDS011;64752;48.870;9.082;2024-03-08T05:41:46;44.97;;;27.85;;
76053;SDS011;64752;48.870;9.082;2024-03-08T05:45:13;41.85;;;25.83;;
76053;SDS011;64752;48.870;9.082;2024-03-08T05:51:33;43.25;;;27.33;;
76053;SDS011;64752;48.870;9.082;2024-03-08T05:54:19;46.40;;;25.92;;
76053;SDS011;64752;48.870;9.082;2024-03-08T05:57:04;47.42;;;28.67;;
76053;SDS011;64752;48.870;9.082;2024-03-08T05:59:29;40.92;;;25.63;;
76053;SDS011;64752;48.870;9.082;2024-03-08T06:02:07;42.35;;;26.60;;
76053;SDS011;64752;48.870;9.082;2024-03-08T06:09:04;42.92;;;25.83;;
76053;SDS011;64752;48.870;9.082;2024-03-08T06:11:51;44.45;;;27.20;;
76053;SDS011;64752;48.870;9.082;2024-03-08T06:14:20;42.50;;;27.05;;
76053;SDS011;64752;48.870;9.082;2024-03-08T06:16:46;44.10;;;27.05;;
76053;SDS011;64752;48.870;9.082;2024-03-08T06:19:12;44.72;;;27.08;;
76053;SDS011;64752;48.870;9.082;2024-03-08T06:21:40;36.63;;;24.02;;
76053;SDS011;64752;48.870;9.082;2024-03-08T06:24:06;42.80;;;26.60;;
76053;SDS011;64752;48.870;9.082;2024-03-08T06:26:35;40.88;;;26.02;;
76053;SDS011;64752;48.870;9.082;2024-03-08T06:29:02;42.85;;;27.85;;
76053;SDS011;64752;48.870;9.082;2024-03-08T06:31:31;43.17;;;27.45;;
76053;SDS011;64752;48.870;9.082;2024-03-08T06:33:57;39.45;;;25.75;;
76053;SDS011;64752;48.870;9.082;2024-03-08T06:36:28;39.47;;;23.67;;
76053;SDS011;64752;48.870;9.082;2024-03-08T06:38:54;39.45;;;24.58;;
76053;SDS011;64752;48.870;9.082;2024-03-08T06:41:19;37.63;;;25.02;;
76053;SDS011;64752;48.870;9.082;2024-03-08T06:43:45;37.47;;;23.95;;
76053;SDS011;64752;48.870;9.082;2024-03-08T06:46:14;32.60;;;22.02;;
76053;SDS011;64752;48.870;9.082;2024-03-08T06:48:40;37.10;;;26.17;;
76053;SDS011;64752;48.870;9.082;2024-03-08T06:51:05;45.45;;;24.63;;
76053;SDS011;64752;48.870;9.082;2024-03-08T06:53:31;36.03;;;23.70;;
76053;SDS011;64752;48.870;9.082;2024-03-08T06:55:57;33.10;;;22.20;;
76053;SDS011;64752;48.870;9.082;2024-03-08T06:58:23;32.67;;;21.90;;
76053;SDS011;64752;48.870;9.082;2024-03-08T07:00:48;33.50;;;22.00;;
76053;SDS011;64752;48.870;9.082;2024-03-08T07:03:17;36.35;;;22.98;;
76053;SDS011;64752;48.870;9.082;2024-03-08T07:05:42;33.22;;;22.05;;
76053;SDS011;64752;48.870;9.082;2024-03-08T07:08:08;35.20;;;23.35;;
76053;SDS011;64752;48.870;9.082;2024-03-08T07:10:33;35.13;;;23.17;;
76053;SDS011;64752;48.870;9.082;2024-03-08T07:13:00;34.20;;;22.65;;
76053;SDS011;64752;48.870;9.082;2024-03-08T07:17:53;33.78;;;21.60;;
76053;SDS011;64752;48.870;9.082;2024-03-08T07:20:18;35.42;;;23.27;;
76053;SDS011;64752;48.870;9.082;2024-03-08T07:22:47;35.28;;;22.50;;
76053;SDS011;64752;48.870;9.082;2024-03-08T07:25:13;32.67;;;22.52;;
76053;SDS011;64752;48.870;9.082;2024-03-08T07:27:52;32.13;;;21.80;;
76053;SDS011;64752;48.870;9.082;2024-03-08T07:30:18;31.60;;;20.63;;
76053;SDS011;64752;48.870;9.082;2024-03-08T07:33:03;31.58;;;20.50;;
76053;SDS011;64752;48.870;9.082;2024-03-08T07:35:30;32.78;;;21.60;;
76053;SDS011;64752;48.870;9.082;2024-03-08T07:37:58;30.33;;;20.37;;
76053;SDS011;64752;48.870;9.082;2024-03-08T07:40:27;30.30;;;20.95;;
76053;SDS011;64752;48.870;9.082;2024-03-08T07:42:53;28.88;;;19.65;;
76053;SDS011;64752;48.870;9.082;2024-03-08T07:45:23;28.40;;;19.30;;
76053;SDS011;64752;48.870;9.082;2024-03-08T07:47:48;29.35;;;19.08;;
76053;SDS011;64752;48.870;9.082;2024-03-08T07:50:14;28.98;;;20.10;;
76053;SDS011;64752;48.870;9.082;2024-03-08T07:55:06;25.30;;;17.73;;
76053;SDS011;64752;48.870;9.082;2024-03-08T07:57:33;25.60;;;18.40;;
76053;SDS011;64752;48.870;9.082;2024-03-08T07:59:58;28.02;;;18.95;;
76053;SDS011;64752;48.870;9.082;2024-03-08T08:02:23;29.33;;;19.65;;
76053;SDS011;64752;48.870;9.082;2024-03-08T08:04:49;28.27;;;18.52;;
76053;SDS011;64752;48.870;9.082;2024-03-08T08:07:15;27.15;;;18.20;;
76053;SDS011;64752;48.870;9.082;2024-03-08T08:09:41;26.88;;;18.05;;
76053;SDS011;64752;48.870;9.082;2024-03-08T08:12:08;23.70;;;17.83;;
76053;SDS011;64752;48.870;9.082;2024-03-08T08:14:37;28.63;;;18.65;;
76053;SDS011;64752;48.870;9.082;2024-03-08T08:17:06;28.35;;;18.45;;
76053;SDS011;64752;48.870;9.082;2024-03-08T08:19:33;25.92;;;18.33;;
76053;SDS011;64752;48.870;9.082;2024-03-08T08:22:00;27.48;;;18.63;;
76053;SDS011;64752;48.870;9.082;2024-03-08T08:24:28;25.75;;;18.75;;
76053;SDS011;64752;48.870;9.082;2024-03-08T08:26:53;26.08;;;19.17;;
76053;SDS011;64752;48.870;9.082;2024-03-08T08:29:19;27.10;;;18.90;;
76053;SDS011;64752;48.870;9.082;2024-03-08T08:31:45;27.33;;;19.75;;
76053;SDS011;64752;48.870;9.082;2024-03-08T08:34:11;27.10;;;18.73;;
76053;SDS011;64752;48.870;9.082;2024-03-08T08:36:37;28.08;;;18.88;;
76053;SDS011;64752;48.870;9.082;2024-03-08T08:39:03;27.90;;;19.42;;
76053;SDS011;64752;48.870;9.082;2024-03-08T08:41:30;27.40;;;18.08;;
76053;SDS011;64752;48.870;9.082;2024-03-08T08:43:56;27.83;;;18.20;;
76053;SDS011;64752;48.870;9.082;2024-03-08T08:46:22;25.23;;;17.38;;
76053;SDS011;64752;48.870;9.082;2024-03-08T08:48:47;29.15;;;18.48;;
76053;SDS011;64752;48.870;9.082;2024-03-08T08:51:13;27.92;;;17.65;;
76053;SDS011;64752;48.870;9.082;2024-03-08T08:53:41;26.33;;;17.27;;
76053;SDS011;64752;48.870;9.082;2024-03-08T08:56:15;26.55;;;17.83;;
76053;SDS011;64752;48.870;9.082;2024-03-08T08:58:43;27.30;;;18.40;;
76053;SDS011;64752;48.870;9.082;2024-03-08T09:01:09;27.42;;;17.27;;
76053;SDS011;64752;48.870;9.082;2024-03-08T09:03:35;24.20;;;16.70;;
76053;SDS011;64752;48.870;9.082;2024-03-08T09:06:02;24.65;;;17.10;;
76053;SDS011;64752;48.870;9.082;2024-03-08T09:08:34;23.88;;;16.00;;
76053;SDS011;64752;48.870;9.082;2024-03-08T09:11:06;26.40;;;17.25;;
76053;SDS011;64752;48.870;9.082;2024-03-08T09:13:49;25.03;;;17.50;;
76053;SDS011;64752;48.870;9.082;2024-03-08T09:16:15;29.48;;;18.80;;
76053;SDS011;64752;48.870;9.082;2024-03-08T09:18:41;26.48;;;17.80;;
76053;SDS011;64752;48.870;9.082;2024-03-08T09:21:06;27.17;;;18.17;;
76053;SDS011;64752;48.870;9.082;2024-03-08T09:23:35;23.85;;;16.90;;
76053;SDS011;64752;48.870;9.082;2024-03-08T09:26:03;25.17;;;16.83;;
76053;SDS011;64752;48.870;9.082;2024-03-08T09:28:29;25.23;;;17.67;;
76053;SDS011;64752;48.870;9.082;2024-03-08T09:30:54;24.63;;;16.88;;
76053;SDS011;64752;48.870;9.082;2024-03-08T09:33:20;24.50;;;17.08;;
76053;SDS011;64752;48.870;9.082;2024-03-08T09:35:46;25.05;;;16.40;;
76053;SDS011;64752;48.870;9.082;2024-03-08T09:38:13;24.60;;;16.70;;
76053;SDS011;64752;48.870;9.082;2024-03-08T09:40:42;28.58;;;17.77;;
76053;SDS011;64752;48.870;9.082;2024-03-08T09:43:08;24.05;;;17.02;;
76053;SDS011;64752;48.870;9.082;2024-03-08T09:45:40;25.00;;;17.10;;
76053;SDS011;64752;48.870;9.082;2024-03-08T09:48:11;26.45;;;16.10;;
76053;SDS011;64752;48.870;9.082;2024-03-08T09:50:41;25.08;;;17.30;;
76053;SDS011;64752;48.870;9.082;2024-03-08T09:53:08;25.25;;;16.75;;
76053;SDS011;64752;48.870;9.082;2024-03-08T09:55:37;23.95;;;16.58;;
76053;SDS011;64752;48.870;9.082;2024-03-08T09:58:07;26.25;;;17.30;;
76053;SDS011;64752;48.870;9.082;2024-03-08T10:00:47;24.52;;;17.20;;
76053;SDS011;64752;48.870;9.082;2024-03-08T10:03:12;23.73;;;16.70;;
76053;SDS011;64752;48.870;9.082;2024-03-08T10:05:39;23.30;;;15.38;;
76053;SDS011;64752;48.870;9.082;2024-03-08T10:08:06;25.48;;;17.40;;
76053;SDS011;64752;48.870;9.082;2024-03-08T10:10:33;25.23;;;16.98;;
76053;SDS011;64752;48.870;9.082;2024-03-08T10:12:59;24.15;;;16.40;;
76053;SDS011;64752;48.870;9.082;2024-03-08T10:15:26;23.20;;;16.23;;
76053;SDS011;64752;48.870;9.082;2024-03-08T10:17:55;23.58;;;16.23;;
76053;SDS011;64752;48.870;9.082;2024-03-08T10:20:21;24.77;;;16.10;;
76053;SDS011;64752;48.870;9.082;2024-03-08T10:22:51;23.75;;;16.58;;
76053;SDS011;64752;48.870;9.082;2024-03-08T10:25:17;24.63;;;15.85;;
76053;SDS011;64752;48.870;9.082;2024-03-08T10:27:43;23.88;;;15.98;;
76053;SDS011;64752;48.870;9.082;2024-03-08T10:30:10;22.05;;;15.80;;
76053;SDS011;64752;48.870;9.082;2024-03-08T10:32:39;21.75;;;15.35;;
76053;SDS011;64752;48.870;9.082;2024-03-08T10:35:06;21.83;;;15.10;;
76053;SDS011;64752;48.870;9.082;2024-03-08T10:37:33;21.95;;;15.10;;
76053;SDS011;64752;48.870;9.082;2024-03-08T10:40:09;25.95;;;14.48;;
76053;SDS011;64752;48.870;9.082;2024-03-08T10:42:41;20.48;;;14.82;;
76053;SDS011;64752;48.870;9.082;2024-03-08T10:45:27;22.13;;;15.93;;
76053;SDS011;64752;48.870;9.082;2024-03-08T10:48:25;22.35;;;15.13;;
76053;SDS011;64752;48.870;9.082;2024-03-08T10:51:02;21.88;;;14.50;;
76053;SDS011;64752;48.870;9.082;2024-03-08T10:53:28;22.55;;;16.27;;
76053;SDS011;64752;48.870;9.082;2024-03-08T10:55:58;24.98;;;16.33;;
76053;SDS011;64752;48.870;9.082;2024-03-08T10:58:24;21.40;;;15.15;;
76053;SDS011;64752;48.870;9.082;2024-03-08T11:00:55;24.92;;;16.10;;
76053;SDS011;64752;48.870;9.082;2024-03-08T11:06:06;21.33;;;15.10;;
76053;SDS011;64752;48.870;9.082;2024-03-08T11:08:40;25.95;;;15.98;;
76053;SDS011;64752;48.870;9.082;2024-03-08T11:11:06;22.80;;;15.67;;
76053;SDS011;64752;48.870;9.082;2024-03-08T11:13:52;22.63;;;15.38;;
76053;SDS011;64752;48.870;9.082;2024-03-08T11:18:50;22.48;;;15.77;;
76053;SDS011;64752;48.870;9.082;2024-03-08T11:21:19;21.63;;;15.48;;
76053;SDS011;64752;48.870;9.082;2024-03-08T11:26:26;21.65;;;15.13;;
76053;SDS011;64752;48.870;9.082;2024-03-08T11:32:07;23.23;;;15.05;;
76053;SDS011;64752;48.870;9.082;2024-03-08T11:34:37;23.98;;;15.82;;
76053;SDS011;64752;48.870;9.082;2024-03-08T11:37:45;21.40;;;15.05;;
76053;SDS011;64752;48.870;9.082;2024-03-08T11:46:16;22.48;;;15.27;;
76053;SDS011;64752;48.870;9.082;2024-03-08T11:52:20;23.92;;;15.20;;
76053;SDS011;64752;48.870;9.082;2024-03-08T11:58:36;21.55;;;14.45;;
76053;SDS011;64752;48.870;9.082;2024-03-08T12:01:23;23.17;;;16.83;;
76053;SDS011;64752;48.870;9.082;2024-03-08T12:04:34;22.17;;;15.27;;
76053;SDS011;64752;48.870;9.082;2024-03-08T12:07:13;22.75;;;14.75;;
76053;SDS011;64752;48.870;9.082;2024-03-08T12:10:28;21.90;;;15.63;;
76053;SDS011;64752;48.870;9.082;2024-03-08T12:13:23;20.08;;;14.13;;
76053;SDS011;64752;48.870;9.082;2024-03-08T12:16:25;22.58;;;15.57;;
76053;SDS011;64752;48.870;9.082;2024-03-08T12:19:23;18.92;;;13.75;;
76053;SDS011;64752;48.870;9.082;2024-03-08T12:22:35;19.90;;;14.77;;
76053;SDS011;64752;48.870;9.082;2024-03-08T12:25:25;19.95;;;15.38;;
76053;SDS011;64752;48.870;9.082;2024-03-08T12:28:31;20.20;;;14.50;;
76053;SDS011;64752;48.870;9.082;2024-03-08T12:31:07;23.20;;;16.33;;
76053;SDS011;64752;48.870;9.082;2024-03-08T12:34:21;19.92;;;14.55;;
76053;SDS011;64752;48.870;9.082;2024-03-08T12:36:47;20.98;;;14.60;;
76053;SDS011;64752;48.870;9.082;2024-03-08T12:41:43;20.55;;;14.18;;
76053;SDS011;64752;48.870;9.082;2024-03-08T12:44:08;19.47;;;14.57;;
76053;SDS011;64752;48.870;9.082;2024-03-08T12:46:36;21.88;;;15.52;;
76053;SDS011;64752;48.870;9.082;2024-03-08T12:49:05;19.88;;;14.80;;
76053;SDS011;64752;48.870;9.082;2024-03-08T12:51:34;22.30;;;15.40;;
76053;SDS011;64752;48.870;9.082;2024-03-08T12:54:00;20.20;;;15.23;;
76053;SDS011;64752;48.870;9.082;2024-03-08T12:56:29;27.13;;;17.00;;
76053;SDS011;64752;48.870;9.082;2024-03-08T12:58:57;22.73;;;15.32;;
76053;SDS011;64752;48.870;9.082;2024-03-08T13:01:22;19.37;;;14.93;;
76053;SDS011;64752;48.870;9.082;2024-03-08T13:03:49;18.63;;;15.05;;
76053;SDS011;64752;48.870;9.082;2024-03-08T13:06:14;21.43;;;15.57;;
76053;SDS011;64752;48.870;9.082;2024-03-08T13:08:40;19.77;;;15.63;;
76053;SDS011;64752;48.870;9.082;2024-03-08T13:11:10;21.77;;;15.80;;
76053;SDS011;64752;48.870;9.082;2024-03-08T13:13:41;23.48;;;16.10;;
76053;SDS011;64752;48.870;9.082;2024-03-08T13:16:07;22.20;;;15.38;;
76053;SDS011;64752;48.870;9.082;2024-03-08T13:18:36;21.15;;;15.38;;
76053;SDS011;64752;48.870;9.082;2024-03-08T13:21:02;21.08;;;15.88;;
76053;SDS011;64752;48.870;9.082;2024-03-08T13:23:35;21.60;;;15.13;;
76053;SDS011;64752;48.870;9.082;2024-03-08T13:26:11;21.95;;;15.75;;
76053;SDS011;64752;48.870;9.082;2024-03-08T13:28:47;21.80;;;15.63;;
76053;SDS011;64752;48.870;9.082;2024-03-08T13:31:18;21.52;;;15.73;;
76053;SDS011;64752;48.870;9.082;2024-03-08T13:33:44;23.57;;;15.97;;
76053;SDS011;64752;48.870;9.082;2024-03-08T13:36:11;22.88;;;15.15;;
76053;SDS011;64752;48.870;9.082;2024-03-08T13:38:43;21.30;;;15.05;;
76053;SDS011;64752;48.870;9.082;2024-03-08T13:41:10;20.92;;;15.15;;
76053;SDS011;64752;48.870;9.082;2024-03-08T13:43:37;21.13;;;15.48;;
76053;SDS011;64752;48.870;9.082;2024-03-08T13:46:03;20.70;;;15.93;;
76053;SDS011;64752;48.870;9.082;2024-03-08T13:48:29;20.25;;;15.57;;
76053;SDS011;64752;48.870;9.082;2024-03-08T13:50:55;20.92;;;15.77;;
76053;SDS011;64752;48.870;9.082;2024-03-08T13:53:22;19.80;;;15.13;;
76053;SDS011;64752;48.870;9.082;2024-03-08T13:55:48;21.05;;;15.05;;
76053;SDS011;64752;48.870;9.082;2024-03-08T13:58:14;19.80;;;15.73;;
76053;SDS011;64752;48.870;9.082;2024-03-08T14:00:40;22.57;;;16.20;;
76053;SDS011;64752;48.870;9.082;2024-03-08T14:03:11;20.95;;;15.60;;
76053;SDS011;64752;48.870;9.082;2024-03-08T14:05:41;23.63;;;16.17;;
76053;SDS011;64752;48.870;9.082;2024-03-08T14:08:07;22.50;;;15.48;;
76053;SDS011;64752;48.870;9.082;2024-03-08T14:10:35;23.55;;;16.23;;
76053;SDS011;64752;48.870;9.082;2024-03-08T14:13:04;22.58;;;15.68;;
76053;SDS011;64752;48.870;9.082;2024-03-08T14:15:31;22.15;;;16.25;;
76053;SDS011;64752;48.870;9.082;2024-03-08T14:17:57;21.13;;;14.85;;
76053;SDS011;64752;48.870;9.082;2024-03-08T14:20:23;20.50;;;15.20;;
76053;SDS011;64752;48.870;9.082;2024-03-08T14:22:51;21.00;;;15.05;;
76053;SDS011;64752;48.870;9.082;2024-03-08T14:25:17;21.27;;;14.70;;
76053;SDS011;64752;48.870;9.082;2024-03-08T14:27:43;22.73;;;15.73;;
76053;SDS011;64752;48.870;9.082;2024-03-08T14:30:10;21.40;;;15.38;;
76053;SDS011;64752;48.870;9.082;2024-03-08T14:32:36;23.17;;;15.63;;
76053;SDS011;64752;48.870;9.082;2024-03-08T14:35:03;23.63;;;15.48;;
76053;SDS011;64752;48.870;9.082;2024-03-08T14:37:29;22.60;;;15.95;;
76053;SDS011;64752;48.870;9.082;2024-03-08T14:39:55;22.95;;;16.10;;
76053;SDS011;64752;48.870;9.082;2024-03-08T14:42:21;22.13;;;16.00;;
76053;SDS011;64752;48.870;9.082;2024-03-08T14:44:47;23.00;;;15.23;;
76053;SDS011;64752;48.870;9.082;2024-03-08T14:47:17;23.50;;;15.00;;
76053;SDS011;64752;48.870;9.082;2024-03-08T14:49:42;19.77;;;15.18;;
76053;SDS011;64752;48.870;9.082;2024-03-08T14:52:08;21.48;;;15.68;;
76053;SDS011;64752;48.870;9.082;2024-03-08T14:54:52;23.67;;;15.73;;
76053;SDS011;64752;48.870;9.082;2024-03-08T14:57:18;21.00;;;15.75;;
76053;SDS011;64752;48.870;9.082;2024-03-08T14:59:44;24.40;;;14.10;;
76053;SDS011;64752;48.870;9.082;2024-03-08T15:02:09;23.90;;;14.97;;
76053;SDS011;64752;48.870;9.082;2024-03-08T15:04:35;20.60;;;15.50;;
76053;SDS011;64752;48.870;9.082;2024-03-08T15:07:01;22.63;;;15.60;;
76053;SDS011;64752;48.870;9.082;2024-03-08T15:09:27;22.33;;;15.93;;
76053;SDS011;64752;48.870;9.082;2024-03-08T15:11:53;19.63;;;14.83;;
76053;SDS011;64752;48.870;9.082;2024-03-08T15:14:19;22.25;;;15.55;;
76053;SDS011;64752;48.870;9.082;2024-03-08T15:16:45;19.03;;;14.47;;
76053;SDS011;64752;48.870;9.082;2024-03-08T15:19:13;22.63;;;15.30;;
76053;SDS011;64752;48.870;9.082;2024-03-08T15:21:40;22.13;;;15.10;;
76053;SDS011;64752;48.870;9.082;2024-03-08T15:24:08;23.17;;;15.43;;
76053;SDS011;64752;48.870;9.082;2024-03-08T15:26:40;22.70;;;16.30;;
76053;SDS011;64752;48.870;9.082;2024-03-08T15:29:06;26.13;;;16.37;;
76053;SDS011;64752;48.870;9.082;2024-03-08T15:31:31;23.50;;;16.00;;
76053;SDS011;64752;48.870;9.082;2024-03-08T15:33:57;23.40;;;15.97;;
76053;SDS011;64752;48.870;9.082;2024-03-08T15:36:29;20.98;;;15.75;;
76053;SDS011;64752;48.870;9.082;2024-03-08T15:38:58;22.83;;;15.93;;
76053;SDS011;64752;48.870;9.082;2024-03-08T15:41:24;24.33;;;17.27;;
76053;SDS011;64752;48.870;9.082;2024-03-08T15:43:51;23.52;;;17.25;;
76053;SDS011;64752;48.870;9.082;2024-03-08T15:46:18;21.55;;;15.95;;
76053;SDS011;64752;48.870;9.082;2024-03-08T15:48:47;23.13;;;16.92;;
76053;SDS011;64752;48.870;9.082;2024-03-08T15:51:13;25.35;;;15.95;;
76053;SDS011;64752;48.870;9.082;2024-03-08T15:53:39;25.77;;;17.70;;
76053;SDS011;64752;48.870;9.082;2024-03-08T15:56:05;25.60;;;16.98;;
76053;SDS011;64752;48.870;9.082;2024-03-08T15:58:32;23.45;;;17.00;;
76053;SDS011;64752;48.870;9.082;2024-03-08T16:01:00;22.92;;;16.45;;
76053;SDS011;64752;48.870;9.082;2024-03-08T16:03:26;26.95;;;18.33;;
76053;SDS011;64752;48.870;9.082;2024-03-08T16:05:53;26.38;;;17.67;;
76053;SDS011;64752;48.870;9.082;2024-03-08T16:08:19;27.77;;;17.13;;
76053;SDS011;64752;48.870;9.082;2024-03-08T16:10:48;23.35;;;16.98;;
76053;SDS011;64752;48.870;9.082;2024-03-08T16:13:15;24.92;;;16.52;;
76053;SDS011;64752;48.870;9.082;2024-03-08T16:15:45;24.65;;;17.02;;
76053;SDS011;64752;48.870;9.082;2024-03-08T16:18:11;24.55;;;16.42;;
76053;SDS011;64752;48.870;9.082;2024-03-08T16:20:38;26.17;;;17.88;;
76053;SDS011;64752;48.870;9.082;2024-03-08T16:23:04;27.92;;;18.00;;
76053;SDS011;64752;48.870;9.082;2024-03-08T16:25:30;23.60;;;16.48;;
76053;SDS011;64752;48.870;9.082;2024-03-08T16:27:55;25.15;;;16.73;;
76053;SDS011;64752;48.870;9.082;2024-03-08T16:30:21;24.38;;;16.35;;
76053;SDS011;64752;48.870;9.082;2024-03-08T16:32:48;25.85;;;16.52;;
76053;SDS011;64752;48.870;9.082;2024-03-08T16:35:16;21.48;;;15.40;;
76053;SDS011;64752;48.870;9.082;2024-03-08T16:37:46;23.20;;;15.18;;
76053;SDS011;64752;48.870;9.082;2024-03-08T16:40:12;23.65;;;15.30;;
76053;SDS011;64752;48.870;9.082;2024-03-08T16:42:44;22.77;;;15.80;;
76053;SDS011;64752;48.870;9.082;2024-03-08T16:45:10;24.25;;;16.00;;
76053;SDS011;64752;48.870;9.082;2024-03-08T16:47:37;21.02;;;14.68;;
76053;SDS011;64752;48.870;9.082;2024-03-08T16:50:03;23.00;;;15.63;;
76053;SDS011;64752;48.870;9.082;2024-03-08T16:52:30;25.85;;;16.58;;
76053;SDS011;64752;48.870;9.082;2024-03-08T16:54:57;25.60;;;15.57;;
76053;SDS011;64752;48.870;9.082;2024-03-08T16:57:22;22.67;;;15.57;;
76053;SDS011;64752;48.870;9.082;2024-03-08T16:59:50;23.40;;;16.08;;
76053;SDS011;64752;48.870;9.082;2024-03-08T17:02:16;23.80;;;16.98;;
76053;SDS011;64752;48.870;9.082;2024-03-08T17:04:42;23.35;;;16.45;;
76053;SDS011;64752;48.870;9.082;2024-03-08T17:07:08;28.88;;;18.55;;
76053;SDS011;64752;48.870;9.082;2024-03-08T17:09:34;23.58;;;16.50;;
76053;SDS011;64752;48.870;9.082;2024-03-08T17:12:03;23.23;;;16.33;;
76053;SDS011;64752;48.870;9.082;2024-03-08T17:14:30;23.20;;;15.73;;
76053;SDS011;64752;48.870;9.082;2024-03-08T17:16:56;20.33;;;15.07;;
76053;SDS011;64752;48.870;9.082;2024-03-08T17:19:24;24.10;;;16.05;;
76053;SDS011;64752;48.870;9.082;2024-03-08T17:21:51;23.17;;;14.57;;
76053;SDS011;64752;48.870;9.082;2024-03-08T17:24:19;23.02;;;14.55;;
76053;SDS011;64752;48.870;9.082;2024-03-08T17:26:48;23.75;;;14.73;;
76053;SDS011;64752;48.870;9.082;2024-03-08T17:29:14;22.52;;;14.90;;
76053;SDS011;64752;48.870;9.082;2024-03-08T17:31:39;21.23;;;14.35;;
76053;SDS011;64752;48.870;9.082;2024-03-08T17:34:05;20.90;;;14.15;;
76053;SDS011;64752;48.870;9.082;2024-03-08T17:36:30;26.63;;;15.77;;
76053;SDS011;64752;48.870;9.082;2024-03-08T17:38:58;21.40;;;15.18;;
76053;SDS011;64752;48.870;9.082;2024-03-08T17:41:23;23.42;;;14.38;;
76053;SDS011;64752;48.870;9.082;2024-03-08T17:43:49;22.17;;;15.15;;
76053;SDS011;64752;48.870;9.082;2024-03-08T17:46:15;21.17;;;15.07;;